Time;durP1;ratioP1;P1;durP2;ratioP2;P2;SDS_P1;SDS_P2;PMS_P1;PMS_P2;Temp;Humidity;BMP_temperature;BMP_pressure;BME280_temperature;BME280_humidity;BME280_pressure;Samples;Min_cycle;Max_cycle;Signal;HPM_P1;HPM_P2
2022/09/26 00:00:34;;;;;;;5.38;4.90;;;;;;;13.73;51.84;94898.06;4969387;28;20282;-67
2022/09/26 00:03:00;;;;;;;6.47;5.72;;;;;;;13.86;51.29;94881.63;4968004;28;20252;-67
2022/09/26 00:05:25;;;;;;;6.80;4.95;;;;;;;13.58;52.62;94884.78;4970338;28;20195;-67
2022/09/26 00:07:51;;;;;;;5.80;5.22;;;;;;;13.67;51.96;94881.09;4968965;28;20195;-66
2022/09/26 00:10:16;;;;;;;6.68;5.05;;;;;;;13.76;51.92;94886.31;4960929;28;20209;-67
2022/09/26 00:12:42;;;;;;;6.72;4.82;;;;;;;13.91;51.15;94876.66;4951851;28;20198;-67
2022/09/26 00:15:08;;;;;;;8.80;5.53;;;;;;;13.79;51.17;94880.69;4963283;28;20194;-67
2022/09/26 00:17:33;;;;;;;5.88;5.00;;;;;;;13.75;51.31;94880.22;4967061;28;20223;-66
2022/09/26 00:19:59;;;;;;;5.93;4.90;;;;;;;13.56;52.00;94870.91;4965617;28;20204;-66
2022/09/26 00:22:24;;;;;;;5.78;4.90;;;;;;;13.55;51.83;94869.28;4963860;28;20200;-66
2022/09/26 00:24:51;;;;;;;5.28;4.78;;;;;;;13.82;50.90;94860.03;4964489;28;20196;-65
2022/09/26 00:27:16;;;;;;;5.35;4.82;;;;;;;13.71;51.50;94878.09;4970607;28;20550;-66
2022/09/26 00:29:42;;;;;;;6.13;5.55;;;;;;;13.66;51.38;94873.34;4963451;28;20197;-67
2022/09/26 00:32:07;;;;;;;5.80;5.20;;;;;;;13.65;51.27;94872.50;4963029;28;20304;-67
2022/09/26 00:34:33;;;;;;;5.47;4.97;;;;;;;13.64;51.57;94878.78;4966695;28;20192;-68
2022/09/26 00:36:58;;;;;;;5.90;5.30;;;;;;;13.75;51.72;94871.47;4962947;28;20566;-68
2022/09/26 00:39:24;;;;;;;5.95;4.95;;;;;;;13.67;52.17;94873.16;4963848;28;20304;-68
2022/09/26 00:41:49;;;;;;;7.45;5.20;;;;;;;13.76;52.16;94860.72;4964886;28;20228;-67
2022/09/26 00:44:48;;;;;;;5.18;4.70;;;;;;;13.77;52.20;94867.66;4964310;28;20188;-67
2022/09/26 00:47:23;;;;;;;7.57;4.90;;;;;;;13.74;51.84;94861.88;4917993;29;20197;-68
2022/09/26 00:49:52;;;;;;;5.78;5.18;;;;;;;13.71;52.03;94859.59;4917321;29;20224;-68
2022/09/26 00:52:29;;;;;;;4.95;4.45;;;;;;;13.63;52.50;94852.53;4910949;29;20224;-67
2022/09/26 00:55:00;;;;;;;8.70;5.35;;;;;;;13.78;51.74;94860.53;4918815;29;20216;-67
2022/09/26 00:57:34;;;;;;;6.05;4.72;;;;;;;13.67;51.70;94859.13;4915718;29;20198;-67
2022/09/26 01:00:04;;;;;;;7.47;5.13;;;;;;;13.81;51.38;94862.84;4920339;29;20944;-67
2022/09/26 01:02:29;;;;;;;6.05;4.80;;;;;;;13.93;50.61;94848.22;4915906;29;20193;-67
2022/09/26 01:04:58;;;;;;;5.80;4.50;;;;;;;13.98;50.63;94845.03;4938362;29;20357;-67
2022/09/26 01:07:26;;;;;;;4.93;4.43;;;;;;;13.93;50.89;94848.22;4927248;29;20198;-67
2022/09/26 01:09:53;;;;;;;6.38;4.63;;;;;;;13.95;50.67;94848.84;4912999;29;20225;-67
2022/09/26 01:12:19;;;;;;;5.40;4.63;;;;;;;13.87;50.48;94857.69;4932505;29;20189;-68
2022/09/26 01:14:46;;;;;;;6.13;4.85;;;;;;;13.53;52.04;94849.31;4929089;29;20314;-68
2022/09/26 01:17:13;;;;;;;6.30;4.93;;;;;;;13.37;53.07;94847.59;4930678;29;20205;-67
2022/09/26 01:20:02;;;;;;;6.68;5.07;;;;;;;13.34;53.19;94855.81;4936839;29;20209;-68
2022/09/26 01:22:47;;;;;;;6.03;5.30;;;;;;;13.67;52.37;94832.69;4924103;28;20198;-68
2022/09/26 01:25:35;;;;;;;5.97;4.93;;;;;;;13.69;52.67;94854.50;4967904;28;20207;-68
2022/09/26 01:28:44;;;;;;;8.27;5.18;;;;;;;13.97;51.61;94841.56;4966580;28;20201;-68
2022/09/26 01:31:25;;;;;;;7.60;5.15;;;;;;;13.76;52.09;94849.31;4966856;28;20188;-68
2022/09/26 01:34:03;;;;;;;7.05;4.75;;;;;;;13.87;52.20;94846.25;4964450;28;20208;-67
2022/09/26 01:36:38;;;;;;;5.90;4.63;;;;;;;13.93;51.95;94842.13;4966007;28;20203;-67
2022/09/26 01:39:25;;;;;;;5.57;4.90;;;;;;;13.88;52.14;94845.28;4969790;28;20207;-67
2022/09/26 01:42:12;;;;;;;5.38;4.88;;;;;;;14.06;51.68;94850.25;4965265;28;20224;-67
2022/09/26 01:44:51;;;;;;;6.28;5.10;;;;;;;13.99;52.20;94851.97;4965940;28;20188;-67
2022/09/26 01:47:26;;;;;;;5.60;5.10;;;;;;;13.54;53.55;94854.41;4964243;28;20248;-67
2022/09/26 01:50:22;;;;;;;5.50;4.90;;;;;;;13.83;52.75;94839.69;4969679;28;20238;-68
2022/09/26 01:52:58;;;;;;;5.97;5.40;;;;;;;13.77;53.05;94835.13;4963415;28;20195;-68
2022/09/26 01:55:30;;;;;;;6.25;5.50;;;;;;;13.59;53.91;94844.16;4970648;28;20200;-66
2022/09/26 01:58:14;;;;;;;5.53;4.70;;;;;;;13.79;53.01;94841.03;4968987;28;20298;-67
2022/09/26 02:00:45;;;;;;;5.65;5.15;;;;;;;13.89;52.98;94845.09;4965676;28;20192;-67
2022/09/26 02:03:17;;;;;;;5.35;4.95;;;;;;;13.94;52.96;94831.34;4966515;28;20262;-67
2022/09/26 02:06:04;;;;;;;5.70;5.20;;;;;;;13.83;53.38;94824.66;4967439;28;20191;-67
2022/09/26 02:08:36;;;;;;;7.10;6.40;;;;;;;13.67;53.90;94833.53;4971742;28;20200;-67
2022/09/26 02:11:12;;;;;;;6.53;5.78;;;;;;;13.90;53.62;94822.16;4966989;28;20211;-66
2022/09/26 02:13:50;;;;;;;7.60;6.22;;;;;;;13.86;53.21;94818.19;4968474;28;20275;-66
2022/09/26 02:16:24;;;;;;;6.95;6.25;;;;;;;13.91;53.09;94826.44;4969978;28;20193;-66
2022/09/26 02:18:57;;;;;;;7.55;6.38;;;;;;;13.84;53.78;94822.84;4966030;28;20282;-67
2022/09/26 02:21:23;;;;;;;8.05;6.68;;;;;;;14.13;53.14;94819.47;4969976;28;20181;-67
2022/09/26 02:23:50;;;;;;;8.02;6.78;;;;;;;14.07;52.46;94821.00;4966920;28;20208;-67
2022/09/26 02:26:16;;;;;;;7.15;6.55;;;;;;;14.02;52.86;94819.91;4966643;28;20188;-67
2022/09/26 02:28:42;;;;;;;6.30;5.65;;;;;;;13.98;53.47;94816.81;4961852;28;20267;-66
2022/09/26 02:31:10;;;;;;;6.80;5.85;;;;;;;13.95;54.13;94809.19;4970577;28;20489;-67
2022/09/26 02:33:36;;;;;;;5.95;5.28;;;;;;;13.84;54.78;94805.16;4963941;28;20206;-67
2022/09/26 02:36:09;;;;;;;7.82;5.55;;;;;;;13.92;54.57;94791.06;4962615;28;20196;-67
2022/09/26 02:38:35;;;;;;;5.95;5.45;;;;;;;14.07;53.61;94788.47;4954920;28;20216;-67
2022/09/26 02:41:08;;;;;;;6.88;6.28;;;;;;;14.01;53.71;94783.91;4970399;28;20228;-68
2022/09/26 02:44:15;;;;;;;5.60;5.10;;;;;;;13.90;54.59;94783.31;4979949;28;20267;-67
2022/09/26 02:47:08;;;;;;;5.20;4.70;;;;;;;13.86;54.43;94784.66;4893492;29;20206;-67
2022/09/26 02:50:17;;;;;;;5.68;5.18;;;;;;;14.04;53.79;94784.34;4913330;29;20194;-66
2022/09/26 02:53:15;;;;;;;6.10;5.50;;;;;;;13.98;54.10;94778.94;4896951;29;20186;-63
2022/09/26 02:55:58;;;;;;;7.53;5.72;;;;;;;13.34;56.27;94795.09;4897459;29;20294;-64
2022/09/26 02:58:36;;;;;;;6.78;6.13;;;;;;;13.00;57.56;94802.34;4913099;29;20247;-64
2022/09/26 03:01:22;;;;;;;6.22;5.65;;;;;;;13.16;57.36;94792.69;4912413;29;20201;-63
2022/09/26 03:03:59;;;;;;;7.25;5.90;;;;;;;13.37;56.72;94792.94;4911542;29;20318;-64
2022/09/26 03:06:32;;;;;;;5.70;5.20;;;;;;;13.22;57.17;94794.63;4912789;29;20194;-64
2022/09/26 03:08:58;;;;;;;6.18;5.68;;;;;;;13.47;56.53;94784.78;4895519;29;20214;-64
2022/09/26 03:11:27;;;;;;;6.93;5.53;;;;;;;13.63;55.79;94771.47;4912206;29;20371;-64
2022/09/26 03:13:55;;;;;;;6.03;5.45;;;;;;;13.66;55.31;94770.31;4912473;29;20194;-64
2022/09/26 03:16:24;;;;;;;6.40;5.80;;;;;;;13.74;55.20;94777.31;4912939;29;20285;-64
2022/09/26 03:18:59;;;;;;;6.60;6.00;;;;;;;13.76;54.83;94770.88;4898467;29;20721;-64
2022/09/26 03:21:26;;;;;;;6.82;5.57;;;;;;;13.75;54.32;94777.16;4922118;28;20326;-64
2022/09/26 03:23:51;;;;;;;8.15;6.13;;;;;;;13.96;54.03;94783.59;4967889;28;20193;-64
2022/09/26 03:26:23;;;;;;;6.93;5.90;;;;;;;13.95;53.71;94780.13;4967041;28;20188;-64
2022/09/26 03:28:50;;;;;;;6.35;5.50;;;;;;;13.76;54.14;94776.16;4963945;28;20181;-64
2022/09/26 03:31:19;;;;;;;7.82;5.70;;;;;;;13.65;54.63;94773.94;4963258;28;20185;-62
2022/09/26 03:33:45;;;;;;;6.35;5.75;;;;;;;13.63;54.45;94758.25;4965377;28;20216;-63
2022/09/26 03:36:11;;;;;;;7.78;6.43;;;;;;;13.66;54.34;94755.25;4969170;28;20226;-63
2022/09/26 03:38:36;;;;;;;7.55;5.97;;;;;;;13.65;54.61;94752.78;4963792;28;20228;-62
2022/09/26 03:41:02;;;;;;;7.93;5.55;;;;;;;13.60;54.95;94748.03;4973837;28;20255;-62
2022/09/26 03:43:28;;;;;;;6.68;6.00;;;;;;;13.58;54.53;94742.13;4971982;28;20247;-62
2022/09/26 03:45:53;;;;;;;6.95;6.25;;;;;;;13.57;54.55;94747.56;4976337;28;20245;-63
2022/09/26 03:48:20;;;;;;;7.80;7.10;;;;;;;13.61;54.63;94749.69;4969810;28;20193;-63
2022/09/26 03:50:46;;;;;;;6.95;6.20;;;;;;;13.64;54.48;94759.91;4973936;28;20721;-63
2022/09/26 03:53:11;;;;;;;8.05;5.80;;;;;;;13.66;54.60;94763.19;4976692;28;20179;-64
2022/09/26 03:55:36;;;;;;;8.75;6.18;;;;;;;13.62;54.87;94767.16;4970782;28;20242;-64
2022/09/26 03:58:02;;;;;;;8.25;6.20;;;;;;;13.60;54.98;94760.41;4986138;28;20186;-64
2022/09/26 04:00:27;;;;;;;8.10;6.10;;;;;;;13.75;54.52;94763.94;4970455;28;20200;-64
2022/09/26 04:02:53;;;;;;;7.00;6.28;;;;;;;13.55;55.54;94747.75;4971942;28;20184;-64
2022/09/26 04:05:19;;;;;;;7.15;5.93;;;;;;;13.76;55.04;94743.63;4971548;28;20196;-63
2022/09/26 04:07:46;;;;;;;8.27;6.40;;;;;;;13.79;54.97;94741.47;4976124;28;20291;-64
2022/09/26 04:10:12;;;;;;;8.40;6.70;;;;;;;13.87;55.12;94751.13;4972135;28;20208;-64
2022/09/26 04:12:38;;;;;;;7.22;5.95;;;;;;;13.70;55.56;94754.91;4968338;28;20269;-64
2022/09/26 04:15:07;;;;;;;7.20;6.40;;;;;;;13.38;57.27;94764.72;4978525;28;20187;-64
2022/09/26 04:17:33;;;;;;;8.68;6.57;;;;;;;13.57;56.28;94751.03;4965898;28;20214;-64
2022/09/26 04:19:58;;;;;;;10.15;6.75;;;;;;;13.54;56.73;94750.56;4977017;28;20215;-64
2022/09/26 04:22:26;;;;;;;8.13;6.43;;;;;;;13.71;56.59;94754.72;4973703;28;20215;-64
2022/09/26 04:24:52;;;;;;;9.48;6.38;;;;;;;13.67;56.62;94758.72;4970259;28;20215;-64
2022/09/26 04:27:17;;;;;;;9.25;7.78;;;;;;;12.94;58.90;94765.25;4978230;28;20187;-64
2022/09/26 04:29:44;;;;;;;11.15;6.30;;;;;;;13.24;58.18;94766.25;4983341;28;20242;-64
2022/09/26 04:32:10;;;;;;;9.70;6.85;;;;;;;13.52;57.10;94757.84;4987039;28;20259;-64
2022/09/26 04:34:37;;;;;;;9.25;7.43;;;;;;;13.40;57.70;94760.91;4974054;28;20239;-64
2022/09/26 04:37:04;;;;;;;10.82;7.53;;;;;;;13.51;56.94;94772.88;4988757;28;20179;-65
2022/09/26 04:39:29;;;;;;;8.82;7.07;;;;;;;13.28;57.39;94778.13;4977127;28;20215;-65
2022/09/26 04:41:55;;;;;;;7.43;6.72;;;;;;;13.26;57.49;94785.41;4967746;28;20245;-63
2022/09/26 04:44:20;;;;;;;8.10;6.93;;;;;;;13.26;57.49;94774.84;4962623;28;20180;-64
2022/09/26 04:46:46;;;;;;;8.93;6.57;;;;;;;13.11;58.11;94772.09;4968158;28;20196;-64
2022/09/26 04:49:12;;;;;;;11.63;7.97;;;;;;;13.38;57.28;94765.53;4963956;28;20180;-63
2022/09/26 04:51:37;;;;;;;11.75;6.68;;;;;;;13.55;56.64;94763.63;4970987;28;20191;-64
2022/09/26 04:54:03;;;;;;;7.40;6.70;;;;;;;13.64;55.97;94757.25;4966513;28;20659;-64
2022/09/26 04:56:29;;;;;;;6.80;6.10;;;;;;;13.62;56.01;94755.78;4973514;28;20189;-63
2022/09/26 04:58:56;;;;;;;7.28;6.57;;;;;;;13.66;55.93;94757.91;4977140;28;20201;-63
2022/09/26 05:01:22;;;;;;;7.82;6.35;;;;;;;13.43;56.51;94770.28;4971556;28;20319;-62
2022/09/26 05:03:48;;;;;;;10.63;6.65;;;;;;;13.63;55.49;94765.34;4970684;28;20200;-62
2022/09/26 05:06:16;;;;;;;8.70;6.60;;;;;;;13.81;54.97;94762.41;4977481;28;20184;-63
2022/09/26 05:08:47;;;;;;;9.50;7.05;;;;;;;13.83;54.72;94761.22;4975658;28;20184;-63
2022/09/26 05:11:14;;;;;;;7.40;5.78;;;;;;;13.96;54.64;94754.53;4973490;28;20242;-63
2022/09/26 05:13:40;;;;;;;10.55;6.63;;;;;;;14.03;54.36;94756.28;4972308;28;20350;-62
2022/09/26 05:16:07;;;;;;;7.97;6.72;;;;;;;14.13;54.43;94756.00;4972443;28;20255;-63
2022/09/26 05:18:33;;;;;;;9.77;6.88;;;;;;;14.18;54.12;94740.44;4962905;28;20192;-63
2022/09/26 05:21:00;;;;;;;7.95;6.95;;;;;;;14.09;54.39;94734.41;4968989;28;20395;-63
2022/09/26 05:26:23;;;;;;;8.68;7.68;;;;;;;14.21;53.95;94732.13;4963430;28;20248;-64
2022/09/26 05:29:00;;;;;;;8.00;7.10;;;;;;;14.08;55.01;94735.38;4969038;28;20189;-64
2022/09/26 05:31:28;;;;;;;10.65;8.02;;;;;;;14.31;54.10;94742.47;4971854;28;20183;-61
2022/09/26 05:33:56;;;;;;;10.13;7.07;;;;;;;13.85;54.96;94739.94;4965587;28;20192;-61
2022/09/26 05:36:22;;;;;;;9.05;7.07;;;;;;;14.10;54.63;94735.22;4967553;28;20316;-62
2022/09/26 05:38:48;;;;;;;10.27;7.13;;;;;;;14.31;53.91;94726.59;4972259;28;20240;-62
2022/09/26 05:41:14;;;;;;;11.30;7.55;;;;;;;14.31;54.32;94721.31;4970279;28;20228;-61
2022/09/26 05:43:40;;;;;;;13.90;7.47;;;;;;;14.50;53.50;94719.94;4966199;28;20185;-62
2022/09/26 05:46:08;;;;;;;12.55;7.63;;;;;;;13.89;55.66;94728.78;4972218;28;20198;-70
2022/09/26 05:48:35;;;;;;;10.48;7.45;;;;;;;14.04;55.43;94728.84;4965937;28;20231;-72
2022/09/26 05:51:21;;;;;;;10.80;7.78;;;;;;;14.09;55.57;94738.88;4968539;28;20249;-72
2022/09/26 05:53:48;;;;;;;9.25;7.63;;;;;;;14.23;55.10;94738.06;4965095;28;20212;-72
2022/09/26 05:56:15;;;;;;;11.77;7.63;;;;;;;14.35;54.57;94741.06;4967995;28;20216;-70
2022/09/26 05:58:41;;;;;;;8.80;7.90;;;;;;;14.48;53.63;94740.44;4963563;28;20200;-68
2022/09/26 06:01:15;;;;;;;10.02;7.82;;;;;;;14.63;52.98;94741.31;4967469;28;20191;-67
2022/09/26 06:03:42;;;;;;;11.95;7.78;;;;;;;14.56;53.66;94735.91;4965803;28;20188;-68
2022/09/26 06:06:18;;;;;;;9.60;7.90;;;;;;;14.66;53.82;94750.69;4980868;28;20204;-69
2022/09/26 06:08:44;;;;;;;9.45;7.75;;;;;;;14.52;53.37;94749.69;4963490;28;20191;-69
2022/09/26 06:11:15;;;;;;;13.50;8.23;;;;;;;14.90;52.00;94739.81;4960235;28;20197;-67
2022/09/26 06:13:45;;;;;;;9.52;8.57;;;;;;;14.98;51.62;94745.00;4964656;28;20187;-68
2022/09/26 06:16:19;;;;;;;8.40;7.55;;;;;;;14.62;52.72;94754.72;4961799;28;20185;-68
2022/09/26 06:18:46;;;;;;;10.30;8.43;;;;;;;14.92;51.90;94747.59;4959364;28;20201;-66
2022/09/26 06:21:13;;;;;;;16.38;12.52;;;;;;;15.26;51.12;94757.53;4967737;28;20191;-66
2022/09/26 06:23:39;;;;;;;15.32;9.38;;;;;;;15.63;50.66;94763.63;4963944;28;20227;-66
2022/09/26 06:26:07;;;;;;;12.80;9.38;;;;;;;15.56;50.97;94746.88;4966867;28;20264;-67
2022/09/26 06:28:36;;;;;;;12.02;9.80;;;;;;;15.25;51.92;94737.38;4962805;28;20200;-67
2022/09/26 06:31:13;;;;;;;16.80;11.15;;;;;;;15.30;51.75;94747.41;4962042;28;20271;-66
2022/09/26 06:33:38;;;;;;;15.43;10.65;;;;;;;15.46;51.07;94751.66;4968795;28;20195;-66
2022/09/26 06:36:06;;;;;;;22.38;12.90;;;;;;;15.61;50.64;94739.97;4967805;28;20200;-66
2022/09/26 06:38:32;;;;;;;16.02;10.60;;;;;;;15.83;50.17;94748.78;4969137;28;20184;-67
2022/09/26 06:40:57;;;;;;;18.15;14.07;;;;;;;15.91;49.62;94742.53;4969169;28;20254;-68
2022/09/26 06:43:23;;;;;;;22.35;12.00;;;;;;;15.91;49.23;94736.41;4970526;28;20181;-70
2022/09/26 06:45:48;;;;;;;14.38;12.23;;;;;;;15.54;49.91;94738.28;4965543;28;20199;-69
2022/09/26 06:48:16;;;;;;;16.27;13.55;;;;;;;15.67;50.41;94730.44;4968664;28;20190;-68
2022/09/26 06:50:41;;;;;;;18.27;12.77;;;;;;;15.87;49.68;94733.28;4965884;28;20187;-70
2022/09/26 06:53:07;;;;;;;15.45;11.85;;;;;;;15.95;49.10;94735.00;4970675;28;20188;-69
2022/09/26 06:55:32;;;;;;;12.90;11.57;;;;;;;16.09;48.45;94732.25;4967566;28;20192;-69
2022/09/26 06:57:58;;;;;;;15.60;10.73;;;;;;;16.05;48.62;94735.50;4967905;28;20199;-67
2022/09/26 07:00:24;;;;;;;11.13;8.77;;;;;;;16.13;47.57;94737.19;4966445;28;20204;-68
2022/09/26 07:02:52;;;;;;;9.10;8.27;;;;;;;16.25;46.62;94735.63;4967006;28;20184;-69
2022/09/26 07:05:18;;;;;;;9.55;7.53;;;;;;;16.34;46.23;94741.63;4963707;28;20181;-68
2022/09/26 07:07:45;;;;;;;9.57;6.53;;;;;;;16.23;46.08;94743.78;4964210;28;20214;-72
2022/09/26 07:10:12;;;;;;;10.00;5.90;;;;;;;16.49;45.32;94743.16;4963886;28;20275;-66
2022/09/26 07:12:40;;;;;;;5.60;4.68;;;;;;;16.82;42.51;94742.53;4964537;28;20243;-66
2022/09/26 07:15:06;;;;;;;6.25;4.13;;;;;;;17.08;42.00;94741.00;4965302;28;20217;-65
2022/09/26 07:17:32;;;;;;;4.63;4.00;;;;;;;17.37;41.48;94747.84;4964387;28;20211;-67
2022/09/26 07:19:57;;;;;;;7.22;6.05;;;;;;;17.50;40.95;94739.91;4963019;28;20200;-66
2022/09/26 07:22:23;;;;;;;4.72;4.22;;;;;;;17.32;41.51;94747.63;4968809;28;20299;-66
2022/09/26 07:24:49;;;;;;;6.63;4.10;;;;;;;17.39;41.19;94736.00;4970704;28;20200;-66
2022/09/26 07:27:16;;;;;;;6.50;4.50;;;;;;;17.36;41.27;94739.06;4965283;28;20210;-65
2022/09/26 07:29:46;;;;;;;4.45;4.05;;;;;;;17.41;41.89;94741.13;4967563;28;20246;-63
2022/09/26 07:32:12;;;;;;;7.32;4.10;;;;;;;17.23;42.17;94748.84;4946919;28;20192;-62
2022/09/26 07:34:38;;;;;;;5.15;3.97;;;;;;;17.39;41.11;94737.84;4961685;28;20216;-62
2022/09/26 07:37:03;;;;;;;7.60;4.10;;;;;;;17.08;42.54;94741.84;4966921;28;20192;-66
2022/09/26 07:39:29;;;;;;;5.07;3.92;;;;;;;16.96;41.92;94738.09;4968012;28;20255;-66
2022/09/26 07:41:54;;;;;;;6.53;4.05;;;;;;;17.05;42.49;94736.09;4968454;28;20228;-65
2022/09/26 07:44:20;;;;;;;8.13;4.22;;;;;;;16.85;43.11;94742.13;4967445;28;20192;-64
2022/09/26 07:52:13;;;;;;;13.90;6.55;;;;;;;17.05;43.74;94733.44;4967427;28;20726;-68
2022/09/26 07:54:40;;;;;;;9.80;5.00;;;;;;;17.18;43.90;94725.50;4967934;28;20176;-70
2022/09/26 07:57:06;;;;;;;6.03;4.40;;;;;;;17.20;42.82;94726.94;4971190;28;20330;-69
2022/09/26 07:59:34;;;;;;;9.98;5.70;;;;;;;17.24;42.81;94723.88;4965984;28;20212;-65
2022/09/26 08:02:01;;;;;;;7.10;4.82;;;;;;;17.25;42.64;94715.72;4968352;28;20307;-64
2022/09/26 08:04:27;;;;;;;5.53;4.80;;;;;;;17.15;43.01;94712.63;4968393;28;20203;-64
2022/09/26 08:06:54;;;;;;;8.77;5.10;;;;;;;17.33;44.65;94701.44;4966928;28;20188;-65
2022/09/26 08:09:20;;;;;;;9.05;4.82;;;;;;;17.27;43.05;94703.06;4965973;28;20188;-65
2022/09/26 08:11:46;;;;;;;5.72;5.03;;;;;;;17.50;42.49;94697.38;4966432;28;20199;-64
2022/09/26 08:14:11;;;;;;;7.18;5.13;;;;;;;17.50;43.05;94688.59;4963207;28;20194;-64
2022/09/26 08:16:38;;;;;;;9.02;4.97;;;;;;;17.62;42.46;94674.50;4969472;28;20192;-65
2022/09/26 08:19:06;;;;;;;6.85;5.45;;;;;;;17.73;42.11;94682.91;4963961;28;20213;-64
2022/09/26 08:21:32;;;;;;;6.68;4.57;;;;;;;17.70;41.89;94680.66;4968046;28;20187;-64
2022/09/26 08:23:57;;;;;;;6.80;4.43;;;;;;;17.73;42.06;94698.84;4966810;28;20213;-63
2022/09/26 08:26:22;;;;;;;6.03;5.30;;;;;;;17.62;42.36;94686.97;4968862;28;20279;-63
2022/09/26 08:28:48;;;;;;;7.68;5.00;;;;;;;17.72;42.31;94665.28;4969525;28;20189;-63
2022/09/26 08:31:14;;;;;;;6.90;5.18;;;;;;;17.79;41.92;94666.97;4965589;28;20230;-64
2022/09/26 08:33:40;;;;;;;6.82;4.72;;;;;;;17.86;43.24;94659.00;4981105;28;20189;-63
2022/09/26 08:36:11;;;;;;;6.97;4.20;;;;;;;17.88;43.22;94651.59;4973809;28;20188;-63
2022/09/26 08:38:37;;;;;;;5.22;4.05;;;;;;;18.04;42.15;94656.53;4972469;28;20196;-64
2022/09/26 08:41:06;;;;;;;7.13;4.80;;;;;;;18.08;41.67;94668.38;4974712;28;20260;-65
2022/09/26 08:43:51;;;;;;;6.68;4.00;;;;;;;18.13;40.26;94677.59;4964593;28;20180;-64
2022/09/26 08:47:05;;;;;;;3.92;3.63;;;;;;;18.41;39.19;94670.16;4966898;28;20192;-62
2022/09/26 08:49:52;;;;;;;6.97;4.50;;;;;;;18.50;39.70;94670.75;4919771;29;20186;-63
2022/09/26 08:52:36;;;;;;;4.45;4.03;;;;;;;18.62;39.74;94657.59;4917392;29;20306;-65
2022/09/26 08:55:10;;;;;;;6.82;3.65;;;;;;;18.75;39.76;94654.13;4934004;29;20193;-64
2022/09/26 08:57:54;;;;;;;5.28;3.90;;;;;;;19.14;38.97;94661.13;4931370;29;20201;-64
2022/09/26 09:00:24;;;;;;;7.32;4.40;;;;;;;19.09;38.39;94663.59;4920772;29;20206;-64
2022/09/26 09:03:14;;;;;;;6.65;4.05;;;;;;;19.17;38.59;94656.16;4929546;29;20199;-63
2022/09/26 09:05:48;;;;;;;6.70;4.40;;;;;;;18.97;39.46;94654.63;4928814;29;20213;-63
2022/09/26 09:08:31;;;;;;;6.05;3.92;;;;;;;19.01;39.34;94656.66;4919512;29;20367;-63
2022/09/26 09:11:34;;;;;;;7.32;4.15;;;;;;;19.19;38.99;94653.25;4917016;29;20198;-63
2022/09/26 09:14:14;;;;;;;5.13;4.63;;;;;;;19.25;39.56;94643.63;4920526;29;20189;-67
2022/09/26 09:16:57;;;;;;;5.85;4.55;;;;;;;19.31;40.03;94638.25;4929962;29;20221;-66
2022/09/26 09:19:25;;;;;;;8.13;4.57;;;;;;;19.61;38.47;94638.44;4933501;29;20198;-66
2022/09/26 09:22:02;;;;;;;6.00;4.57;;;;;;;19.60;39.11;94622.66;4919410;29;20216;-67
2022/09/26 09:24:49;;;;;;;7.05;4.53;;;;;;;19.78;38.52;94630.75;4965336;28;20279;-67
2022/09/26 09:27:21;;;;;;;7.05;4.30;;;;;;;20.04;37.94;94635.00;4970784;28;20197;-67
2022/09/26 09:29:46;;;;;;;8.73;4.65;;;;;;;20.46;36.87;94639.75;4963485;28;20189;-68
2022/09/26 09:32:18;;;;;;;6.32;4.20;;;;;;;20.87;35.70;94638.25;4966431;28;20195;-70
2022/09/26 09:34:46;;;;;;;7.93;3.83;;;;;;;21.01;35.17;94626.38;4963020;28;20185;-69
2022/09/26 09:37:22;;;;;;;7.50;4.28;;;;;;;21.05;35.15;94619.53;4971711;28;20184;-70
2022/09/26 09:39:49;;;;;;;6.60;4.32;;;;;;;20.94;36.08;94612.28;4969412;28;20250;-70
2022/09/26 09:42:27;;;;;;;8.95;4.25;;;;;;;21.11;35.09;94623.16;4965235;28;20232;-70
2022/09/26 09:45:02;;;;;;;5.75;4.03;;;;;;;20.84;36.01;94606.66;4959719;28;20201;-68
2022/09/26 09:47:28;;;;;;;5.35;3.83;;;;;;;20.71;39.12;94618.31;4966313;28;20646;-68
2022/09/26 09:49:56;;;;;;;5.88;3.72;;;;;;;20.55;39.91;94613.59;4973525;28;20191;-68
2022/09/26 09:52:37;;;;;;;5.15;3.50;;;;;;;20.85;37.40;94600.25;4968822;28;20199;-68
2022/09/26 09:55:32;;;;;;;3.40;3.10;;;;;;;21.30;36.36;94599.84;4966405;28;20196;-68
2022/09/26 09:58:19;;;;;;;6.32;3.33;;;;;;;21.48;35.54;94610.50;4894878;29;20425;-67
2022/09/26 10:01:08;;;;;;;5.00;3.25;;;;;;;21.51;34.16;94603.88;4913665;29;20198;-69
2022/09/26 10:03:40;;;;;;;7.40;3.53;;;;;;;21.58;34.46;94585.88;4913217;29;20198;-69
2022/09/26 10:06:10;;;;;;;4.07;2.72;;;;;;;21.51;34.59;94575.25;4913094;29;20257;-66
2022/09/26 10:08:41;;;;;;;5.78;2.90;;;;;;;21.46;36.23;94560.97;4895044;29;20378;-68
2022/09/26 10:11:11;;;;;;;4.78;2.88;;;;;;;21.54;37.01;94571.31;4898858;29;20194;-68
2022/09/26 10:13:41;;;;;;;7.13;3.53;;;;;;;21.59;37.28;94566.09;4913416;29;20191;-68
2022/09/26 10:16:08;;;;;;;7.32;3.40;;;;;;;21.78;35.21;94569.47;4913630;29;20206;-68
2022/09/26 10:18:51;;;;;;;7.47;3.60;;;;;;;21.92;35.97;94581.59;4899795;29;20194;-68
2022/09/26 10:21:17;;;;;;;5.63;2.90;;;;;;;22.15;34.95;94583.44;4914475;29;20317;-68
2022/09/26 10:23:49;;;;;;;5.50;3.53;;;;;;;22.14;35.04;94581.81;4894501;29;20193;-68
2022/09/26 10:26:21;;;;;;;4.95;3.47;;;;;;;22.10;34.99;94599.38;4895654;29;20543;-68
2022/09/26 10:28:54;;;;;;;7.35;5.05;;;;;;;22.16;34.57;94592.28;4898348;29;20214;-67
2022/09/26 10:31:37;;;;;;;11.02;5.78;;;;;;;22.24;34.78;94584.75;4914150;29;20194;-67
2022/09/26 10:34:19;;;;;;;11.40;5.13;;;;;;;22.18;35.09;94582.16;4905943;28;20200;-65
2022/09/26 10:36:45;;;;;;;9.38;4.72;;;;;;;22.22;34.81;94576.13;4965970;28;20192;-63
2022/09/26 10:42:13;;;;;;;7.18;3.63;;;;;;;22.58;34.01;94565.34;4984240;28;20278;-64
2022/09/26 10:44:38;;;;;;;11.68;4.35;;;;;;;22.78;34.39;94552.34;4985658;28;20210;-64
2022/09/26 10:47:09;;;;;;;7.90;4.03;;;;;;;22.94;34.06;94547.28;4973360;28;20642;-64
2022/09/26 10:49:49;;;;;;;6.70;3.55;;;;;;;23.08;33.91;94533.34;4979436;28;20267;-64
2022/09/26 10:52:23;;;;;;;5.40;3.63;;;;;;;23.50;32.48;94535.69;4970490;28;20191;-64
2022/09/26 10:55:03;;;;;;;5.30;3.55;;;;;;;23.79;33.41;94535.63;4976511;28;20214;-64
2022/09/26 10:57:38;;;;;;;3.97;3.15;;;;;;;23.91;31.78;94532.84;4965948;28;20195;-64
2022/09/26 11:00:06;;;;;;;4.90;3.20;;;;;;;24.02;32.82;94531.91;4974810;28;20202;-66
2022/09/26 11:02:32;;;;;;;3.83;2.75;;;;;;;24.08;31.62;94525.53;4973559;28;20182;-64
2022/09/26 11:07:51;;;;;;;3.03;2.45;;;;;;;24.49;31.32;94512.69;4982224;28;20195;-65
2022/09/26 11:10:23;;;;;;;7.00;2.88;;;;;;;24.70;31.40;94513.72;4975208;28;20187;-65
2022/09/26 11:12:59;;;;;;;8.65;2.83;;;;;;;25.00;30.06;94517.81;4970551;28;20207;-64
2022/09/26 11:15:27;;;;;;;5.28;2.90;;;;;;;25.04;30.44;94506.25;4980947;28;20187;-65
2022/09/26 11:17:54;;;;;;;4.53;3.00;;;;;;;25.16;30.12;94499.97;4970332;28;20203;-64
2022/09/26 11:20:35;;;;;;;4.07;2.75;;;;;;;24.95;30.10;94504.31;4984558;28;20199;-64
2022/09/26 11:23:11;;;;;;;5.60;2.42;;;;;;;25.23;30.11;94506.78;4968660;28;20180;-64
2022/09/26 11:25:45;;;;;;;5.45;2.47;;;;;;;25.48;29.47;94498.09;4966417;28;20212;-64
2022/09/26 11:28:16;;;;;;;3.65;3.08;;;;;;;25.77;29.13;94502.31;4969526;28;20191;-65
2022/09/26 11:30:47;;;;;;;3.15;2.20;;;;;;;25.85;30.25;94497.31;4965948;28;20280;-68
2022/09/26 11:33:17;;;;;;;4.35;2.30;;;;;;;25.90;28.22;94500.03;4969799;28;20210;-69
2022/09/26 11:36:00;;;;;;;4.05;2.92;;;;;;;25.79;28.10;94487.50;4966222;28;20188;-68
2022/09/26 11:38:45;;;;;;;3.67;2.67;;;;;;;25.70;28.92;94483.69;4973816;28;20207;-68
2022/09/26 11:41:35;;;;;;;4.60;2.50;;;;;;;25.95;29.20;94475.81;4979367;28;20232;-66
2022/09/26 11:44:19;;;;;;;3.83;2.72;;;;;;;26.29;28.62;94464.66;4980495;28;20211;-68
2022/09/26 11:47:23;;;;;;;3.85;2.70;;;;;;;26.65;29.08;94462.13;4964904;28;20179;-68
2022/09/26 11:50:12;;;;;;;8.88;3.17;;;;;;;27.02;28.78;94455.69;4974365;28;20187;-68
2022/09/26 11:52:43;;;;;;;4.10;2.47;;;;;;;27.33;28.29;94445.75;4971293;28;20247;-70
2022/09/26 11:55:25;;;;;;;4.35;3.15;;;;;;;27.46;27.37;94455.22;4970912;28;20188;-69
2022/09/26 11:58:05;;;;;;;5.28;2.80;;;;;;;27.47;26.75;94452.22;4980875;28;20214;-69
2022/09/26 12:00:50;;;;;;;3.47;2.20;;;;;;;27.15;26.45;94446.25;4970160;28;20219;-67
2022/09/26 12:03:32;;;;;;;6.25;2.00;;;;;;;27.07;27.00;94439.50;4967715;28;20215;-69
2022/09/26 12:06:06;;;;;;;2.30;2.00;;;;;;;26.67;27.30;94432.97;4980996;28;20246;-72